Meteo Giornale » Osservazioni meteo Brasile » Guarulhos Civ-Mil

ore: 13:00 - Osservazioni Meteo Guarulhos Civ-Mil
Lat. 23° 26' S Lon. 46° 28' W Alt. 750 metri s.l.m.

sereno America/Sao_Paulo

24 °C

Sereno

Temp. 24 Ore

8 °C

25 °C

Nord

5.5 Km/h

Dew point 10 °C

Umidità 41 %

Visibilità  10 Km

Il sole sorge alle ore 06:43

Il sole tramonta alle ore 17:41

Data e Ora Cielo e Fenomeni T °C DP °C Um. % Pres. hPa Vis. km Vento km/h
Oggi h: 13:00 sereno Sereno 24 10 41 1024 10 N 5.5
Oggi h: 12:00 sereno Sereno 22 9 43 1026 10 E/NE 7.4
Oggi h: 11:00 sereno Sereno 20 10 52 1026 10 E 11.1
Oggi h: 10:00 sereno Sereno 16 11 72 1027 10 E 16.7
Oggi h: 09:00 sereno Sereno 14 12 87 1027 10 E/NE 14.8
Oggi h: 08:00 sereno Sereno 12 10 87 1026 7 N 3.7
Oggi h: 07:00 foschia Foschia 8 8 100 1025 5 N 0
Oggi h: 06:00 sereno Sereno 8 8 100 1025 6 N 0
Oggi h: 05:00 sereno Sereno 9 9 100 1024 6 N 0
Oggi h: 04:00 sereno Sereno 11 10 93 1024 6 E/NE 9.3
Oggi h: 03:00 sereno Sereno 10 9 93 1024 6 E/NE 11.1
Oggi h: 02:00 sereno Sereno 10 9 93 1025 6 NE 7.4
Oggi h: 01:00 sereno Sereno 10 8 87 1025 6 E/NE 7.4
Oggi h: 00:00 foschia Foschia 12 9 81 1026 5 N 5.5
Ieri h: 23:00 foschia Foschia 11 10 93 1026 5 N 1.8
Ieri h: 22:00 foschia Foschia 12 10 87 1026 5 N 0
Ieri h: 21:00 sereno Sereno 13 10 81 1025 7 N 0
Ieri h: 20:00 sereno Sereno 13 9 76 1025 9 N 0
Ieri h: 19:00 sereno Sereno 16 9 63 1024 10 N 3.7
Ieri h: 18:00 sereno Sereno 20 9 49 1024 10 N 5.5
Ieri h: 17:00 sereno Sereno 23 8 38 1024 10 E/NE 14.8
Ieri h: 16:00 sereno Sereno 24 6 31 1024 10 E/NE 11.1
Ieri h: 15:00 sereno Sereno 25 4 25 1024 10 NE 13
Ieri h: 14:00 sereno Sereno 23 8 38 1025 10 E 7.4